Airfield :
LOGIN :

Register | Disclaimer

   EN    FR    IT 

 










Legend :    VFR   Marginal VFR   IFR   Intensive IFR   Very Intensive IFR
Visi :
Ceiling :
>= 8 km
>= 3000ft
5 to 8 km
1000 to 3000 ft
1500m to 5 km
500 to 1000 ft
800 to 1500m
200 to 500 ft
< 800m
< 200 ft
Symbols :   Thunderstorms  Fog  Heavy snow  Heavy precipitations  Wind > 20 kt
SIGMETs :     Misc.  Thunderstorms  Icing  Turbulence  Mountain Waves  Volcanic Ashes







- Airport Elevation : 0 ft


ETEB - Ansbach Army Heliport

CURRENT METAR :
  • 292358Z AUTO 28004KT 9999 FEW060 10/04 A3033 RMK AO2 SLP282 T01010044 10131 20099 52006

EXPIRED METARs :
  • 292258Z AUTO 25004KT 9999 SCT060 11/05 A3032 RMK AO2 SLP276 T01100047 401690076
  • 292158Z AUTO 27004KT 9999 OVC060 12/05 A3032 RMK AO2 SLP276 T01170047

TAF TAF ETEB
Valid from the 29 at 21:00 until the 31 at 03:00 UTC


292102Z 2921/3103 27009KT 9999 BKN040 QNH3026INS
BECMG 3002/3003 VRB06KT 9999 BKN020 QNH3030INS
TEMPO 3003/3008 6000 BR
BECMG 3009/3010 VRB06KT 9999 SCT030 QNH3025INS
BECMG 3019/3020 13009KT 9999 BKN030 QNH3015INS TX18/3015Z TN06/3003Z
No reported NOTAMs for that airfield.



MET'MAP, your aeronautical weather chart ! - Copyright ORBIFLY December 2007 - Disclaimer

ORBIFLY MET'MAP TEAM :

Programming & Development : Alexandra Zaïnal
Concept & Development : Baudouin d'Aumeries
Co-Development & Prog : Marc-Olivier Méhu
Technical & hardware support : Manuel Goepfert

Contact : metmap@orbifly.com




SOURCES & CREDITS :

   NOAA